Km.santika Nusantara — POWQ — position and weather

sailwx.info

Track history (hours):
 
Tides and Currents Weather Stations Pressure Air Temp Water Temp Dewpoint Dewpoint Depression Visibility Wind Speed Wind Dir Waves Ship Positions

Km.santika Nusantara

Last reported at 2018-Aug-17 03:10 UTC. Time now 2018-Aug-19 22:50 UTC.
Position S 06°47' E 112°52'.

Length 7 m; draft 6 m.

Type: Passenger vessel. MMSI: 525002126.

Date/timePositionNaut miles runAvg speedWind from/ knotsBaromVisibWave heightAir tempDewpointWater temp
2018-Aug-17 03:10S 06°47' E 112°52'1212.2
2018-Aug-17 02:11S 06°55' E 112°43'312.2
2018-Aug-17 01:54S 06°59' E 112°42'612.5
2018-Aug-17 01:26S 07°04' E 112°40'512.0
2018-Aug-17 01:00S 07°09' E 112°40'5 9.1
2018-Aug-17 00:29S 07°12' E 112°44'0 0.1
2018-Aug-16 23:58S 07°12' E 112°44'0 0.0
2018-Aug-16 23:28S 07°12' E 112°44'0 0.0
2018-Aug-16 23:00S 07°12' E 112°44'0 0.0
2018-Aug-16 22:23S 07°12' E 112°44'0 0.0
2018-Aug-16 21:53S 07°12' E 112°44'0 0.0
2018-Aug-16 21:28S 07°12' E 112°44'0 0.0
2018-Aug-16 20:53S 07°12' E 112°44'0 0.0
2018-Aug-16 20:24S 07°12' E 112°44'0 0.0
2018-Aug-16 20:00S 07°12' E 112°44'0 0.0
2018-Aug-16 19:28S 07°12' E 112°44'0 0.0
2018-Aug-16 19:00S 07°12' E 112°44'0 0.0
2018-Aug-16 18:28S 07°12' E 112°44'0 0.0
2018-Aug-16 17:59S 07°12' E 112°44'0 0.0
2018-Aug-16 17:22S 07°12' E 112°44'0 0.0
2018-Aug-16 17:00S 07°12' E 112°44'0 0.0
2018-Aug-16 16:26S 07°12' E 112°44'0 0.0
2018-Aug-16 15:37S 07°12' E 112°44'0 0.0
2018-Aug-16 15:27S 07°12' E 112°44'0 0.0
2018-Aug-16 15:00S 07°12' E 112°44'0 0.0
2018-Aug-16 14:29S 07°12' E 112°44'0 0.4
2018-Aug-16 13:58S 07°12' E 112°44'0 0.4
2018-Aug-16 13:29S 07°11' E 112°44'0 0.0
2018-Aug-16 12:57S 07°11' E 112°44'0 0.0
2018-Aug-16 12:30S 07°11' E 112°44'0 0.0
2018-Aug-16 11:56S 07°11' E 112°44'0 0.0
2018-Aug-16 11:29S 07°11' E 112°44'0 0.1
2018-Aug-16 10:58S 07°11' E 112°44'1 1.5
2018-Aug-16 10:21S 07°12' E 112°43'3 6.3
2018-Aug-16 09:52S 07°10' E 112°40'510.8
2018-Aug-16 09:26S 07°05' E 112°39'512.0
2018-Aug-16 09:00S 07°00' E 112°41'  
2018-Aug-12 02:41S 06°49' E 112°50'412.8
2018-Aug-12 02:20S 06°51' E 112°46'510.5
2018-Aug-12 01:50S 06°56' E 112°43'3 7.3
2018-Aug-12 01:24S 06°59' E 112°42'6 8.6
2018-Aug-12 00:43S 07°04' E 112°40'3 8.8
2018-Aug-12 00:25S 07°07' E 112°40'5 8.4
2018-Aug-11 23:51S 07°11' E 112°42'3 6.3
2018-Aug-11 23:27S 07°12' E 112°44'0 0.1
2018-Aug-11 22:45S 07°12' E 112°44'0 0.0
2018-Aug-11 22:30S 07°12' E 112°44'0 0.0
2018-Aug-11 21:57S 07°12' E 112°44'0 0.0
2018-Aug-11 21:28S 07°12' E 112°44'0 0.0
2018-Aug-11 20:36S 07°12' E 112°44'0 0.0
2018-Aug-11 20:23S 07°12' E 112°44'0 0.0
2018-Aug-11 19:58S 07°12' E 112°44'0 0.0
2018-Aug-11 19:27S 07°12' E 112°44'0 0.0
2018-Aug-11 18:51S 07°12' E 112°44'0 0.0
2018-Aug-11 18:27S 07°12' E 112°44'0 0.0
2018-Aug-11 17:51S 07°12' E 112°44'0 0.0
2018-Aug-11 17:27S 07°12' E 112°44'0 0.0
2018-Aug-11 16:52S 07°12' E 112°44'0 0.0
2018-Aug-11 16:29S 07°12' E 112°44'0 0.0
2018-Aug-11 15:54S 07°12' E 112°44'0 0.0
2018-Aug-11 15:29S 07°12' E 112°44'0 0.0
2018-Aug-11 14:59S 07°12' E 112°44'0 0.0
2018-Aug-11 14:30S 07°12' E 112°44'0 0.0
2018-Aug-11 13:56S 07°12' E 112°44'0 0.0
2018-Aug-11 13:30S 07°12' E 112°44'0 0.0
2018-Aug-11 13:00S 07°12' E 112°44'0 0.0
2018-Aug-11 12:28S 07°12' E 112°44'0 0.0
2018-Aug-11 11:50S 07°12' E 112°44'0 0.0
2018-Aug-11 11:28S 07°12' E 112°44'0 0.8
2018-Aug-11 11:00S 07°11' E 112°44'0 0.0
2018-Aug-11 10:30S 07°11' E 112°44'0 0.1
2018-Aug-11 09:54S 07°11' E 112°44'2 3.5
2018-Aug-11 09:23S 07°11' E 112°42'4 6.3
2018-Aug-11 08:50S 07°09' E 112°40'711.7
2018-Aug-11 08:12S 07°02' E 112°40'311.6
2018-Aug-11 07:56S 06°59' E 112°42'  
Track history (hours):
 
Tides and Currents Weather Stations Pressure Air Temp Water Temp Dewpoint Dewpoint Depression Visibility Wind Speed Wind Dir Waves Ship Positions

Km.santika Nusantara

Last reported at 2018-Aug-17 03:10 UTC. Time now 2018-Aug-19 22:50 UTC.
Position S 06°47' E 112°52'.

Length 7 m; draft 6 m.

Type: Passenger vessel. MMSI: 525002126.

Date/timePositionNaut miles runAvg speedWind from/ knotsBaromVisibWave heightAir tempDewpointWater temp
2018-Aug-17 03:10S 06°47' E 112°52'1212.2
2018-Aug-17 02:11S 06°55' E 112°43'312.2
2018-Aug-17 01:54S 06°59' E 112°42'612.5
2018-Aug-17 01:26S 07°04' E 112°40'512.0
2018-Aug-17 01:00S 07°09' E 112°40'5 9.1
2018-Aug-17 00:29S 07°12' E 112°44'0 0.1
2018-Aug-16 23:58S 07°12' E 112°44'0 0.0
2018-Aug-16 23:28S 07°12' E 112°44'0 0.0
2018-Aug-16 23:00S 07°12' E 112°44'0 0.0
2018-Aug-16 22:23S 07°12' E 112°44'0 0.0
2018-Aug-16 21:53S 07°12' E 112°44'0 0.0
2018-Aug-16 21:28S 07°12' E 112°44'0 0.0
2018-Aug-16 20:53S 07°12' E 112°44'0 0.0
2018-Aug-16 20:24S 07°12' E 112°44'0 0.0
2018-Aug-16 20:00S 07°12' E 112°44'0 0.0
2018-Aug-16 19:28S 07°12' E 112°44'0 0.0
2018-Aug-16 19:00S 07°12' E 112°44'0 0.0
2018-Aug-16 18:28S 07°12' E 112°44'0 0.0
2018-Aug-16 17:59S 07°12' E 112°44'0 0.0
2018-Aug-16 17:22S 07°12' E 112°44'0 0.0
2018-Aug-16 17:00S 07°12' E 112°44'0 0.0
2018-Aug-16 16:26S 07°12' E 112°44'0 0.0
2018-Aug-16 15:37S 07°12' E 112°44'0 0.0
2018-Aug-16 15:27S 07°12' E 112°44'0 0.0
2018-Aug-16 15:00S 07°12' E 112°44'0 0.0
2018-Aug-16 14:29S 07°12' E 112°44'0 0.4
2018-Aug-16 13:58S 07°12' E 112°44'0 0.4
2018-Aug-16 13:29S 07°11' E 112°44'0 0.0
2018-Aug-16 12:57S 07°11' E 112°44'0 0.0
2018-Aug-16 12:30S 07°11' E 112°44'0 0.0
2018-Aug-16 11:56S 07°11' E 112°44'0 0.0
2018-Aug-16 11:29S 07°11' E 112°44'0 0.1
2018-Aug-16 10:58S 07°11' E 112°44'1 1.5
2018-Aug-16 10:21S 07°12' E 112°43'3 6.3
2018-Aug-16 09:52S 07°10' E 112°40'510.8
2018-Aug-16 09:26S 07°05' E 112°39'512.0
2018-Aug-16 09:00S 07°00' E 112°41'  
2018-Aug-12 02:41S 06°49' E 112°50'412.8
2018-Aug-12 02:20S 06°51' E 112°46'510.5
2018-Aug-12 01:50S 06°56' E 112°43'3 7.3
2018-Aug-12 01:24S 06°59' E 112°42'6 8.6
2018-Aug-12 00:43S 07°04' E 112°40'3 8.8
2018-Aug-12 00:25S 07°07' E 112°40'5 8.4
2018-Aug-11 23:51S 07°11' E 112°42'3 6.3
2018-Aug-11 23:27S 07°12' E 112°44'0 0.1
2018-Aug-11 22:45S 07°12' E 112°44'0 0.0
2018-Aug-11 22:30S 07°12' E 112°44'0 0.0
2018-Aug-11 21:57S 07°12' E 112°44'0 0.0
2018-Aug-11 21:28S 07°12' E 112°44'0 0.0
2018-Aug-11 20:36S 07°12' E 112°44'0 0.0
2018-Aug-11 20:23S 07°12' E 112°44'0 0.0
2018-Aug-11 19:58S 07°12' E 112°44'0 0.0
2018-Aug-11 19:27S 07°12' E 112°44'0 0.0
2018-Aug-11 18:51S 07°12' E 112°44'0 0.0
2018-Aug-11 18:27S 07°12' E 112°44'0 0.0
2018-Aug-11 17:51S 07°12' E 112°44'0 0.0
2018-Aug-11 17:27S 07°12' E 112°44'0 0.0
2018-Aug-11 16:52S 07°12' E 112°44'0 0.0
2018-Aug-11 16:29S 07°12' E 112°44'0 0.0
2018-Aug-11 15:54S 07°12' E 112°44'0 0.0
2018-Aug-11 15:29S 07°12' E 112°44'0 0.0
2018-Aug-11 14:59S 07°12' E 112°44'0 0.0
2018-Aug-11 14:30S 07°12' E 112°44'0 0.0
2018-Aug-11 13:56S 07°12' E 112°44'0 0.0
2018-Aug-11 13:30S 07°12' E 112°44'0 0.0
2018-Aug-11 13:00S 07°12' E 112°44'0 0.0
2018-Aug-11 12:28S 07°12' E 112°44'0 0.0
2018-Aug-11 11:50S 07°12' E 112°44'0 0.0
2018-Aug-11 11:28S 07°12' E 112°44'0 0.8
2018-Aug-11 11:00S 07°11' E 112°44'0 0.0
2018-Aug-11 10:30S 07°11' E 112°44'0 0.1
2018-Aug-11 09:54S 07°11' E 112°44'2 3.5
2018-Aug-11 09:23S 07°11' E 112°42'4 6.3
2018-Aug-11 08:50S 07°09' E 112°40'711.7
2018-Aug-11 08:12S 07°02' E 112°40'311.6
2018-Aug-11 07:56S 06°59' E 112°42'  

Dump ship's entire track history